CYYJ

Victoria International Airport

Victoria, , Canada
METAR CYYJ 211500Z 24017G22KT 30SM FEW030 08/02 A3026 RMK SC1 SLP247
Observed Flight Rules
Apr-21 @ 15:00 UTC (37 minutes ago) Visual Flight Rules
Wind Visibility Clouds
240° at 17 knots
 Gusting to 22 knots
30 miles
  • Few at 3,000' AGL
Temperatures Readings
Current 8°C / 46°F
Dewpoint 2°C / 36°F
Humidity 66%
Altimeter 30.26" Hg
Pressure 1024.7 hPa
Elevation 19
METAR CYYJ 211500Z 24017G22KT 30SM FEW030 08/02 A3026 RMK SC1 SLP247
Observed Flight Rules
Apr-21 @ 15:00 UTC
(37 minutes ago)
VFR
Wind Visibility
240° at 17 knots
 Gusting to 22 knots
30 miles
Clouds
  • Few at 3,000' AGL
Temperature Dewpoint
8°C / 46°F 2°C / 36°F
Humidity Altimeter Pressure
66% 30.26" Hg 1024.7 hPa